createdAt,value
2022-11-08T00:00:01.310Z,100290.78
2022-11-08T00:02:28.725Z,100288.25
2022-11-08T00:04:55.709Z,100286.38
2022-11-08T00:07:40.908Z,100286.38
2022-11-08T00:10:26.887Z,100279.47
2022-11-08T00:13:12.267Z,100285.50
2022-11-08T00:15:39.409Z,100279.47
2022-11-08T00:18:27.630Z,100276.81
2022-11-08T00:21:14.531Z,100287.38
2022-11-08T00:24:04.011Z,100282.09
2022-11-08T00:26:50.923Z,100280.31
2022-11-08T00:29:38.131Z,100275.97
2022-11-08T00:32:27.439Z,100279.53
2022-11-08T00:35:14.487Z,100265.00
2022-11-08T00:38:01.502Z,100284.84
2022-11-08T00:40:48.568Z,100270.91
2022-11-08T00:43:35.537Z,100273.59
2022-11-08T00:46:22.611Z,100293.69
2022-11-08T00:49:09.542Z,100279.97
2022-11-08T00:51:57.047Z,100288.53
2022-11-08T00:54:44.180Z,100285.94
2022-11-08T00:57:53.631Z,100284.25
2022-11-08T01:00:38.179Z,100294.00
2022-11-08T01:03:39.966Z,100295.03
2022-11-08T01:06:28.693Z,100201.50
2022-11-08T01:09:15.815Z,100290.78
2022-11-08T01:12:02.691Z,100293.56
2022-11-08T01:14:49.803Z,100308.47
2022-11-08T01:17:36.788Z,100305.91
2022-11-08T01:20:24.051Z,100302.50
2022-11-08T01:23:11.087Z,100306.09
2022-11-08T01:26:07.285Z,100306.25
2022-11-08T01:28:55.512Z,100287.34
2022-11-08T01:31:51.102Z,100302.97
2022-11-08T01:34:37.985Z,100303.13
2022-11-08T01:37:25.039Z,100304.13
2022-11-08T01:40:11.913Z,100302.50
2022-11-08T01:42:58.986Z,100291.34
2022-11-08T01:46:20.175Z,100291.38
2022-11-08T01:49:16.569Z,100290.66
2022-11-08T01:52:36.635Z,100206.47
2022-11-08T01:55:29.416Z,100292.66
2022-11-08T01:58:23.760Z,100289.34
2022-11-08T02:01:12.403Z,100293.78
2022-11-08T02:04:01.655Z,100284.41
2022-11-08T02:06:50.635Z,100286.16
2022-11-08T02:09:38.979Z,100295.03
2022-11-08T02:12:27.764Z,100200.41
2022-11-08T02:15:14.636Z,100283.81
2022-11-08T02:18:01.688Z,100279.69
2022-11-08T02:20:49.283Z,100286.59
2022-11-08T02:23:46.655Z,100284.94
2022-11-08T02:26:35.185Z,100287.72
2022-11-08T02:29:53.956Z,100293.91
2022-11-08T02:32:41.875Z,100302.75
2022-11-08T02:35:40.807Z,100290.63
2022-11-08T02:38:27.904Z,100288.06
2022-11-08T02:41:16.897Z,100285.53
2022-11-08T02:44:03.976Z,100285.56
2022-11-08T02:46:50.925Z,100296.19
2022-11-08T02:49:37.880Z,100292.78
2022-11-08T02:52:25.345Z,100205.00
2022-11-08T02:55:12.327Z,100289.38
2022-11-08T02:57:59.235Z,100290.34
2022-11-08T03:00:46.346Z,100273.16
2022-11-08T03:03:33.306Z,100293.09
2022-11-08T03:06:20.648Z,100302.78
2022-11-08T03:09:07.659Z,100302.81
2022-11-08T03:11:54.967Z,100301.16
2022-11-08T03:14:42.071Z,100298.59
2022-11-08T03:17:28.975Z,100300.38
2022-11-08T03:20:15.959Z,100310.94
2022-11-08T03:23:03.315Z,100301.38
2022-11-08T03:25:50.892Z,100301.63
2022-11-08T03:28:38.168Z,100310.25
2022-11-08T03:31:25.302Z,100306.81
2022-11-08T03:34:12.516Z,100308.63
2022-11-08T03:36:59.535Z,100315.63
2022-11-08T03:39:46.564Z,100306.09
2022-11-08T03:42:33.414Z,100177.03
2022-11-08T03:45:20.559Z,100313.19
2022-11-08T03:48:07.616Z,100314.13
2022-11-08T03:50:54.766Z,100311.56
2022-11-08T03:53:41.765Z,100309.03
2022-11-08T03:56:28.819Z,100310.81
2022-11-08T03:59:15.704Z,100317.16
2022-11-08T04:02:02.769Z,100326.66
2022-11-08T04:04:49.861Z,100317.19
2022-11-08T04:07:36.800Z,100329.41
2022-11-08T04:10:25.461Z,100318.94
2022-11-08T04:13:11.312Z,100313.91
2022-11-08T04:15:58.332Z,100320.84
2022-11-08T04:18:43.592Z,100324.38
2022-11-08T04:21:40.898Z,100325.34
2022-11-08T04:24:28.188Z,100331.47
2022-11-08T04:27:15.138Z,100316.66
2022-11-08T04:30:02.120Z,100321.09
2022-11-08T04:32:48.953Z,100326.38
2022-11-08T04:35:36.118Z,100310.13
2022-11-08T04:38:23.254Z,100324.75
2022-11-08T04:41:10.327Z,100329.13
2022-11-08T04:43:57.103Z,100327.47
2022-11-08T04:46:47.084Z,100337.16
2022-11-08T04:49:33.991Z,100351.13
2022-11-08T04:52:20.965Z,100348.53
2022-11-08T04:55:07.792Z,100353.81
2022-11-08T04:57:55.538Z,100274.50
2022-11-08T05:00:42.413Z,100346.94
2022-11-08T05:03:29.374Z,100328.91
2022-11-08T05:06:19.923Z,100352.28
2022-11-08T05:09:07.663Z,100344.56
2022-11-08T05:11:54.723Z,100354.19
2022-11-08T05:14:41.875Z,100367.34
2022-11-08T05:17:28.721Z,100345.75
2022-11-08T05:20:14.428Z,100372.66
2022-11-08T05:23:00.208Z,100293.38
2022-11-08T05:25:47.380Z,100369.28
2022-11-08T05:28:34.666Z,100345.06
2022-11-08T05:31:21.899Z,100360.63
2022-11-08T05:34:08.836Z,100362.44
2022-11-08T05:36:55.796Z,100362.44
2022-11-08T05:39:42.626Z,100372.13
2022-11-08T05:42:29.640Z,100359.06
2022-11-08T05:45:16.549Z,100366.28
2022-11-08T05:48:07.938Z,100372.28
2022-11-08T05:50:55.710Z,100275.03
2022-11-08T05:53:42.683Z,100365.59
2022-11-08T05:56:30.057Z,100383.75
2022-11-08T05:59:17.061Z,100382.97
2022-11-08T06:02:04.107Z,100381.25
2022-11-08T06:04:51.498Z,100385.66
2022-11-08T06:07:38.364Z,100380.56
2022-11-08T06:10:26.059Z,100381.41
2022-11-08T06:13:12.964Z,100384.09
2022-11-08T06:16:00.009Z,100381.50
2022-11-08T06:18:46.881Z,100390.31
2022-11-08T06:21:39.294Z,100389.47
2022-11-08T06:24:26.598Z,100397.38
2022-11-08T06:27:13.671Z,100400.03
2022-11-08T06:30:00.873Z,100397.44
2022-11-08T06:32:47.927Z,100398.34
2022-11-08T06:35:35.223Z,100357.09
2022-11-08T06:38:23.115Z,100401.88
2022-11-08T06:41:10.130Z,100391.63
2022-11-08T06:43:57.151Z,100406.41
2022-11-08T06:46:44.094Z,100411.63
2022-11-08T06:49:31.087Z,100379.84
2022-11-08T06:52:18.151Z,100416.06
2022-11-08T06:55:05.137Z,100416.09
2022-11-08T06:57:53.639Z,100422.22
2022-11-08T07:00:41.625Z,100347.34
2022-11-08T07:03:29.879Z,100438.00
2022-11-08T07:05:56.755Z,100435.44
2022-11-08T07:08:43.740Z,100432.00
2022-11-08T07:11:30.593Z,100434.63
2022-11-08T07:14:17.651Z,100435.50
2022-11-08T07:17:04.533Z,100426.88
2022-11-08T07:19:51.661Z,100426.16
2022-11-08T07:22:38.735Z,100426.97
2022-11-08T07:25:26.266Z,100437.38
2022-11-08T07:28:22.987Z,100446.06
2022-11-08T07:31:10.108Z,100441.69
2022-11-08T07:33:57.032Z,100442.75
2022-11-08T07:36:44.203Z,100454.81
2022-11-08T07:39:31.297Z,100464.41
2022-11-08T07:42:18.464Z,100475.75
2022-11-08T07:45:09.708Z,100453.34
2022-11-08T07:47:56.647Z,100476.66
2022-11-08T07:50:43.636Z,100480.13
2022-11-08T07:53:31.268Z,100483.66
2022-11-08T07:56:18.149Z,100476.69
2022-11-08T07:59:05.094Z,100482.78
2022-11-08T08:01:52.021Z,100488.03
2022-11-08T08:04:39.200Z,100483.66
2022-11-08T08:07:26.931Z,100487.19
2022-11-08T08:10:13.988Z,100489.78
2022-11-08T08:13:00.959Z,100494.13
2022-11-08T08:15:47.956Z,100451.94
2022-11-08T08:18:35.528Z,100494.22
2022-11-08T08:21:22.624Z,100507.25
2022-11-08T08:24:09.708Z,100489.16
2022-11-08T08:26:56.759Z,100501.22
2022-11-08T08:29:43.843Z,100508.13
2022-11-08T08:32:31.776Z,100505.50
2022-11-08T08:35:18.704Z,100486.50
2022-11-08T08:38:05.714Z,100465.81
2022-11-08T08:40:54.011Z,100502.88
2022-11-08T08:43:41.131Z,100502.84
2022-11-08T08:46:28.120Z,100504.56
2022-11-08T08:49:15.099Z,100516.75
2022-11-08T08:52:01.923Z,100521.19
2022-11-08T08:54:49.102Z,100526.34
2022-11-08T08:57:35.879Z,100528.03
2022-11-08T09:03:31.355Z,100534.97
2022-11-08T09:06:18.903Z,100536.72
2022-11-08T09:09:05.823Z,100530.56
2022-11-08T09:11:52.756Z,100528.97
2022-11-08T09:14:40.007Z,100543.66
2022-11-08T09:17:27.097Z,100542.78
2022-11-08T09:20:14.186Z,100542.72
2022-11-08T09:23:01.684Z,100554.00
2022-11-08T09:25:48.709Z,100555.72
2022-11-08T09:28:36.042Z,100427.06
2022-11-08T09:31:25.819Z,100540.78
2022-11-08T09:34:15.103Z,100535.69
2022-11-08T09:37:04.480Z,100519.06
2022-11-08T09:39:51.439Z,100544.16
2022-11-08T09:42:54.058Z,100547.56
2022-11-08T09:45:44.874Z,100546.63
2022-11-08T09:48:42.915Z,100551.84
2022-11-08T09:51:49.754Z,100539.81
2022-11-08T09:54:48.022Z,100563.16
2022-11-08T09:57:55.366Z,100559.53
2022-11-08T10:00:42.408Z,100568.22
2022-11-08T10:03:34.346Z,100484.59
2022-11-08T10:06:24.155Z,100573.38
2022-11-08T10:09:26.213Z,100579.47
2022-11-08T10:12:37.685Z,100581.16
2022-11-08T10:15:41.239Z,100587.19
2022-11-08T10:19:06.790Z,100579.31
2022-11-08T10:22:21.699Z,100582.69
2022-11-08T10:25:19.503Z,100601.88
2022-11-08T10:28:06.731Z,100595.69
2022-11-08T10:30:56.789Z,100593.88
2022-11-08T10:33:49.298Z,100597.34
2022-11-08T10:36:46.298Z,100591.09
2022-11-08T10:39:58.036Z,100587.56
2022-11-08T10:43:04.322Z,100589.25
2022-11-08T10:45:53.699Z,100587.47
2022-11-08T10:48:40.711Z,100585.63
2022-11-08T10:51:28.496Z,100581.22
2022-11-08T10:54:15.473Z,100581.19
2022-11-08T10:57:15.130Z,100587.31
2022-11-08T11:00:03.435Z,100598.53
2022-11-08T11:02:55.510Z,100589.75
2022-11-08T11:06:01.934Z,100586.25
2022-11-08T11:08:49.682Z,100586.09
2022-11-08T11:11:52.137Z,100593.94
2022-11-08T11:14:43.322Z,100599.13
2022-11-08T11:17:40.216Z,100599.97
2022-11-08T11:20:39.600Z,100597.28
2022-11-08T11:23:31.278Z,100582.56
2022-11-08T11:26:18.919Z,100594.53
2022-11-08T11:29:24.227Z,100597.09
2022-11-08T11:32:13.288Z,100590.94
2022-11-08T11:35:10.538Z,100580.56
2022-11-08T11:38:05.251Z,100596.94
2022-11-08T11:41:06.975Z,100594.28
2022-11-08T11:44:06.712Z,100592.50
2022-11-08T11:47:07.577Z,100593.28
2022-11-08T11:49:55.695Z,100592.41
2022-11-08T11:52:42.720Z,100602.88
2022-11-08T11:55:35.452Z,100611.59
2022-11-08T11:58:47.145Z,100607.16
2022-11-08T12:02:00.356Z,100613.28
2022-11-08T12:05:09.091Z,100613.25
2022-11-08T12:08:06.462Z,100620.22
2022-11-08T12:11:15.084Z,100627.19
2022-11-08T12:14:07.946Z,100626.25
2022-11-08T12:17:05.727Z,100634.97
2022-11-08T12:19:55.216Z,100633.19
2022-11-08T12:23:03.267Z,100639.31
2022-11-08T12:26:22.459Z,100651.50
2022-11-08T12:29:38.915Z,100654.09
2022-11-08T12:32:43.939Z,100656.69
2022-11-08T12:35:54.583Z,100615.41
2022-11-08T12:38:51.291Z,100661.91
2022-11-08T12:41:46.451Z,100662.78
2022-11-08T12:45:10.842Z,100661.88
2022-11-08T12:48:06.979Z,100668.88
2022-11-08T12:51:01.780Z,100672.34
2022-11-08T12:54:19.392Z,100683.69
2022-11-08T12:57:08.243Z,100679.31
2022-11-08T13:00:02.793Z,100682.78
2022-11-08T13:02:54.107Z,100681.03
2022-11-08T13:05:48.251Z,100677.53
2022-11-08T13:08:51.326Z,100677.50
2022-11-08T13:11:50.082Z,100686.28
2022-11-08T13:14:41.396Z,100678.38
2022-11-08T13:17:43.703Z,100693.22
2022-11-08T13:20:59.214Z,100681.91
2022-11-08T13:23:50.927Z,100627.69
2022-11-08T13:26:48.827Z,100690.59
2022-11-08T13:29:44.827Z,100681.19
2022-11-08T13:32:48.569Z,100702.88
2022-11-08T13:36:07.370Z,100702.03
2022-11-08T13:39:03.260Z,100699.38
2022-11-08T13:41:50.309Z,100695.91
2022-11-08T13:45:14.379Z,100701.16
2022-11-08T13:48:03.852Z,100697.69
2022-11-08T13:50:56.337Z,100698.59
2022-11-08T13:53:43.287Z,100697.75
2022-11-08T13:56:59.744Z,100710.03
2022-11-08T13:59:52.330Z,100713.53
2022-11-08T14:02:45.788Z,100718.84
2022-11-08T14:05:42.658Z,100695.66
2022-11-08T14:08:37.560Z,100664.59
2022-11-08T14:11:39.124Z,100738.16
2022-11-08T14:14:47.628Z,100730.31
2022-11-08T14:17:49.345Z,100740.00
2022-11-08T14:20:45.235Z,100737.41
2022-11-08T14:23:40.083Z,100740.91
2022-11-08T14:26:41.631Z,100736.59
2022-11-08T14:29:28.755Z,100733.13
2022-11-08T14:32:35.405Z,100731.41
2022-11-08T14:35:45.665Z,100729.72
2022-11-08T15:04:24.371Z,100751.38
2022-11-08T15:07:17.538Z,100758.44
2022-11-08T15:10:05.061Z,100753.16
2022-11-08T15:12:51.851Z,100761.94
2022-11-08T15:15:40.571Z,100755.00
2022-11-08T15:18:37.908Z,100756.75
2022-11-08T15:21:26.674Z,100758.53
2022-11-08T15:24:14.740Z,100745.56
2022-11-08T15:27:34.287Z,100760.38
2022-11-08T15:30:26.742Z,100758.66
2022-11-08T15:33:13.859Z,100762.22
2022-11-08T15:36:00.811Z,100758.75
2022-11-08T15:38:57.996Z,100756.19
2022-11-08T15:41:57.314Z,100752.75
2022-11-08T15:44:45.296Z,100750.31
2022-11-08T15:47:56.324Z,100757.25
2022-11-08T15:50:47.746Z,100759.91
2022-11-08T15:53:35.076Z,100757.34
2022-11-08T15:56:24.627Z,100754.78
2022-11-08T15:59:11.595Z,100740.09
2022-11-08T16:01:58.968Z,100759.22
2022-11-08T16:04:47.883Z,100742.84
2022-11-08T16:07:35.333Z,100748.03
2022-11-08T16:10:22.239Z,100773.41
2022-11-08T16:13:09.834Z,100767.28
2022-11-08T16:15:58.000Z,100760.50
2022-11-08T16:18:45.334Z,100782.22
2022-11-08T16:21:34.039Z,100756.16
2022-11-08T16:24:21.603Z,100777.94
2022-11-08T16:27:09.063Z,100771.84
2022-11-08T16:29:56.316Z,100778.03
2022-11-08T16:32:43.117Z,100778.94
2022-11-08T16:35:30.136Z,100778.97
2022-11-08T16:38:17.190Z,100778.16
2022-11-08T16:41:04.381Z,100780.88
2022-11-08T16:43:52.239Z,100765.25
2022-11-08T16:46:41.072Z,100774.75
2022-11-08T16:49:38.606Z,100780.94
2022-11-08T16:52:25.663Z,100729.81
2022-11-08T16:55:16.542Z,100782.72
2022-11-08T16:58:06.055Z,100781.03
2022-11-08T17:00:53.969Z,100794.16
2022-11-08T17:03:43.043Z,100786.38
2022-11-08T17:06:38.181Z,100789.00
2022-11-08T17:09:25.463Z,100802.97
2022-11-08T17:12:12.367Z,100790.78
2022-11-08T17:14:59.279Z,100791.75
2022-11-08T17:17:46.428Z,100783.97
2022-11-08T17:20:35.678Z,100802.22
2022-11-08T17:23:22.719Z,100801.41
2022-11-08T17:26:09.846Z,100807.53
2022-11-08T17:28:57.610Z,100794.47
2022-11-08T17:31:44.511Z,100799.75
2022-11-08T17:34:31.540Z,100791.91
2022-11-08T17:37:18.569Z,100786.75
2022-11-08T17:40:05.593Z,100727.16
2022-11-08T17:42:52.987Z,100802.50
2022-11-08T17:45:40.080Z,100802.56
2022-11-08T17:48:26.999Z,100809.63
2022-11-08T17:51:13.948Z,100807.03
2022-11-08T17:54:01.212Z,100807.09
2022-11-08T17:56:48.091Z,100825.41
2022-11-08T17:59:35.178Z,100816.72
2022-11-08T18:02:22.176Z,100810.63
2022-11-08T18:05:09.210Z,100794.94
2022-11-08T18:07:36.708Z,100709.34
2022-11-08T18:10:23.776Z,100801.97
2022-11-08T18:13:10.702Z,100803.75
2022-11-08T18:15:58.054Z,100807.25
2022-11-08T18:18:45.116Z,100816.94
2022-11-08T18:21:35.662Z,100771.94
2022-11-08T18:24:24.900Z,100812.59
2022-11-08T18:27:11.955Z,100819.63
2022-11-08T18:29:58.883Z,100814.44
2022-11-08T18:32:25.808Z,100820.53
2022-11-08T18:34:52.886Z,100819.69
2022-11-08T18:37:42.697Z,100820.56
2022-11-08T18:40:30.260Z,100828.44
2022-11-08T18:43:18.291Z,100836.31
2022-11-08T18:46:05.339Z,100838.06
2022-11-08T18:48:53.050Z,100836.34
2022-11-08T18:51:42.595Z,100847.75
2022-11-08T18:54:30.493Z,100839.91
2022-11-08T18:57:17.342Z,100846.03
2022-11-08T19:00:04.452Z,100845.19
2022-11-08T19:02:51.288Z,100842.59
2022-11-08T19:05:38.524Z,100842.66
2022-11-08T19:08:25.798Z,100846.09
2022-11-08T19:11:13.832Z,100847.88
2022-11-08T19:14:01.691Z,100853.13
2022-11-08T19:16:49.310Z,100730.97
2022-11-08T19:19:36.290Z,100846.13
2022-11-08T19:22:24.224Z,100853.16
2022-11-08T19:25:11.159Z,100861.06
2022-11-08T19:27:58.358Z,100818.59
2022-11-08T19:30:45.253Z,100863.72
2022-11-08T19:33:32.268Z,100863.75
2022-11-08T19:36:27.917Z,100869.84
2022-11-08T19:39:17.143Z,100872.47
2022-11-08T19:42:04.040Z,100875.97
2022-11-08T19:44:50.948Z,100874.28
2022-11-08T19:47:37.831Z,100853.53
2022-11-08T19:50:25.252Z,100880.41
2022-11-08T19:53:12.097Z,100873.47
2022-11-08T19:55:58.979Z,100865.63
2022-11-08T19:58:45.915Z,100875.22
2022-11-08T20:01:50.183Z,100871.75
2022-11-08T20:04:37.782Z,100874.38
2022-11-08T20:07:25.603Z,100835.31
2022-11-08T20:10:13.770Z,100841.41
2022-11-08T20:13:00.601Z,100870.94
2022-11-08T20:15:47.587Z,100882.25
2022-11-08T20:18:35.636Z,100883.16
2022-11-08T20:21:25.483Z,100884.06
2022-11-08T20:24:12.394Z,100883.19
2022-11-08T20:27:00.081Z,100886.72
2022-11-08T20:29:47.089Z,100819.13
2022-11-08T20:32:34.215Z,100891.06
2022-11-08T20:35:23.523Z,100898.97
2022-11-08T20:38:10.638Z,100897.25
2022-11-08T20:40:58.663Z,100900.75
2022-11-08T20:43:49.410Z,100893.84
2022-11-08T20:46:39.581Z,100888.63
2022-11-08T20:49:27.567Z,100897.31
2022-11-08T20:52:14.667Z,100899.94
2022-11-08T20:55:01.678Z,100897.34
2022-11-08T20:57:48.608Z,100893.00
2022-11-08T21:00:57.327Z,100908.69
2022-11-08T21:03:44.172Z,100909.56
2022-11-08T21:06:36.205Z,100809.91
2022-11-08T21:09:37.468Z,100918.31
2022-11-08T21:12:29.675Z,100921.81
2022-11-08T21:15:16.497Z,100918.34
2022-11-08T21:18:03.627Z,100916.63
2022-11-08T21:20:50.456Z,100920.13
2022-11-08T21:23:38.758Z,100921.88
2022-11-08T21:26:26.983Z,100925.38
2022-11-08T21:29:14.306Z,100916.66
2022-11-08T21:32:01.231Z,100914.94
2022-11-08T21:34:48.347Z,100926.25
2022-11-08T21:37:35.357Z,100915.81
2022-11-08T21:40:22.633Z,100922.78
2022-11-08T21:43:09.616Z,100925.41
2022-11-08T21:45:57.327Z,100927.19
2022-11-08T21:48:44.515Z,100921.97
2022-11-08T21:51:32.198Z,100837.84
2022-11-08T21:54:19.302Z,100916.81
2022-11-08T21:57:06.495Z,100930.72
2022-11-08T21:59:53.325Z,100920.25
2022-11-08T22:02:40.306Z,100925.50
2022-11-08T22:05:28.646Z,100915.06
2022-11-08T22:08:15.842Z,100915.06
2022-11-08T22:11:05.361Z,100914.22
2022-11-08T22:13:52.594Z,100903.75
2022-11-08T22:16:39.693Z,100906.38
2022-11-08T22:19:26.898Z,100909.00
2022-11-08T22:22:13.793Z,100904.63
2022-11-08T22:25:01.109Z,100898.59
2022-11-08T22:27:47.928Z,100894.25
2022-11-08T22:30:35.140Z,100905.56
2022-11-08T22:33:21.931Z,100900.34
2022-11-08T22:36:09.260Z,100889.97
2022-11-08T22:38:56.205Z,100894.28
2022-11-08T22:41:43.829Z,100903.81
2022-11-08T22:44:31.077Z,100907.31
2022-11-08T22:47:18.185Z,100907.31
2022-11-08T22:50:05.114Z,100883.00
2022-11-08T22:52:52.260Z,100905.59
2022-11-08T22:55:39.087Z,100902.09
2022-11-08T22:58:26.047Z,100862.16
2022-11-08T23:01:13.403Z,100882.19
2022-11-08T23:04:07.373Z,100903.84
2022-11-08T23:06:54.358Z,100894.28
2022-11-08T23:09:41.434Z,100886.44
2022-11-08T23:12:28.518Z,100804.03
2022-11-08T23:15:14.166Z,100885.59
2022-11-08T23:18:01.059Z,100884.75
2022-11-08T23:20:46.470Z,100881.28
2022-11-08T23:23:32.211Z,100879.53
2022-11-08T23:26:19.155Z,100882.19
2022-11-08T23:29:04.506Z,100862.19
2022-11-08T23:31:57.241Z,100870.88
2022-11-08T23:34:44.254Z,100886.53
2022-11-08T23:37:31.235Z,100885.69
2022-11-08T23:40:16.962Z,100898.75
2022-11-08T23:43:02.624Z,100884.81
2022-11-08T23:45:49.797Z,100888.31
2022-11-08T23:48:37.103Z,100879.63
2022-11-08T23:51:24.923Z,100870.97
2022-11-08T23:54:11.926Z,100877.00
2022-11-08T23:56:59.059Z,100873.53
2022-11-08T23:59:45.987Z,100871.78
